createdAt,value
2023-12-19T00:00:31.688Z,5.62
2023-12-19T00:03:01.023Z,5.62
2023-12-19T00:05:28.901Z,5.61
2023-12-19T00:07:56.920Z,5.60
2023-12-19T00:10:24.856Z,5.60
2023-12-19T00:12:52.855Z,5.61
2023-12-19T00:15:23.813Z,5.60
2023-12-19T00:17:52.076Z,5.59
2023-12-19T00:20:21.362Z,5.60
2023-12-19T00:22:49.204Z,5.58
2023-12-19T00:25:17.399Z,5.57
2023-12-19T00:27:45.342Z,5.56
2023-12-19T00:30:14.120Z,5.57
2023-12-19T00:32:42.394Z,5.59
2023-12-19T00:35:10.743Z,5.59
2023-12-19T00:37:40.029Z,5.60
2023-12-19T00:40:09.681Z,5.60
2023-12-19T00:42:37.585Z,5.59
2023-12-19T00:45:06.269Z,5.59
2023-12-19T00:47:34.676Z,5.60
2023-12-19T00:50:03.515Z,5.64
2023-12-19T00:52:31.979Z,5.63
2023-12-19T00:55:01.255Z,5.64
2023-12-19T00:57:29.127Z,5.65
2023-12-19T00:59:57.067Z,5.65
2023-12-19T01:02:25.290Z,5.66
2023-12-19T01:04:53.225Z,5.66
2023-12-19T01:07:21.077Z,5.67
2023-12-19T01:09:49.043Z,5.65
2023-12-19T01:12:19.455Z,5.65
2023-12-19T01:14:47.632Z,5.66
2023-12-19T01:17:16.017Z,5.65
2023-12-19T01:19:43.916Z,5.67
2023-12-19T01:22:11.853Z,5.68
2023-12-19T01:24:39.672Z,5.69
2023-12-19T01:27:07.535Z,5.69
2023-12-19T01:29:36.836Z,5.69
2023-12-19T01:32:05.016Z,5.69
2023-12-19T01:34:34.078Z,5.68
2023-12-19T01:37:02.027Z,5.67
2023-12-19T01:39:29.892Z,5.69
2023-12-19T01:41:58.020Z,5.69
2023-12-19T01:44:26.637Z,5.69
2023-12-19T01:46:55.870Z,5.67
2023-12-19T01:49:24.145Z,5.68
2023-12-19T01:51:52.684Z,5.68
2023-12-19T01:54:23.070Z,5.68
2023-12-19T01:56:51.228Z,5.68
2023-12-19T01:59:19.121Z,5.68
2023-12-19T02:01:47.085Z,5.68
2023-12-19T02:04:16.397Z,5.70
2023-12-19T02:06:44.440Z,5.68
2023-12-19T02:09:12.756Z,5.69
2023-12-19T02:11:40.671Z,5.69
2023-12-19T02:14:08.578Z,5.70
2023-12-19T02:16:36.447Z,5.69
2023-12-19T02:19:05.469Z,5.69
2023-12-19T02:21:34.842Z,5.69
2023-12-19T02:24:04.228Z,5.69
2023-12-19T02:26:33.470Z,5.69
2023-12-19T02:29:01.334Z,5.68
2023-12-19T02:31:29.241Z,5.67
2023-12-19T02:33:57.245Z,5.67
2023-12-19T02:36:25.362Z,5.67
2023-12-19T02:38:53.215Z,5.70
2023-12-19T02:41:22.472Z,5.71
2023-12-19T02:43:54.463Z,5.71
2023-12-19T02:46:23.548Z,5.75
2023-12-19T02:48:51.565Z,5.75
2023-12-19T02:51:20.529Z,5.79
2023-12-19T02:53:48.585Z,5.80
2023-12-19T02:56:16.455Z,5.80
2023-12-19T02:58:45.739Z,5.82
2023-12-19T03:01:13.751Z,5.83
2023-12-19T03:03:42.295Z,5.85
2023-12-19T03:06:10.558Z,5.87
2023-12-19T03:08:38.938Z,5.88
2023-12-19T03:11:06.922Z,5.88
2023-12-19T03:13:34.794Z,5.90
2023-12-19T03:16:04.080Z,5.90
2023-12-19T03:18:32.081Z,5.91
2023-12-19T03:20:59.980Z,5.95
2023-12-19T03:23:29.098Z,5.93
2023-12-19T03:25:56.914Z,5.95
2023-12-19T03:28:25.912Z,5.98
2023-12-19T03:30:53.872Z,5.99
2023-12-19T03:33:23.243Z,6.00
2023-12-19T03:35:51.123Z,6.01
2023-12-19T03:38:19.049Z,6.04
2023-12-19T03:40:46.906Z,6.07
2023-12-19T03:43:15.121Z,6.07
2023-12-19T03:45:43.022Z,6.10
2023-12-19T03:48:10.904Z,6.11
2023-12-19T03:50:40.133Z,6.13
2023-12-19T03:53:07.955Z,6.14
2023-12-19T03:55:35.773Z,6.15
2023-12-19T03:58:03.706Z,6.16
2023-12-19T04:00:31.662Z,6.17
2023-12-19T04:02:59.558Z,6.16
2023-12-19T04:05:27.444Z,6.15
2023-12-19T04:07:56.629Z,6.15
2023-12-19T04:10:24.482Z,6.15
2023-12-19T04:12:52.290Z,6.15
2023-12-19T04:15:20.244Z,6.17
2023-12-19T04:17:48.666Z,6.17
2023-12-19T04:20:16.712Z,6.17
2023-12-19T04:22:45.335Z,6.17
2023-12-19T04:25:14.835Z,6.17
2023-12-19T04:27:42.696Z,6.17
2023-12-19T04:30:11.390Z,6.19
2023-12-19T04:32:39.282Z,6.18
2023-12-19T04:35:07.521Z,6.21
2023-12-19T04:37:35.369Z,6.23
2023-12-19T04:40:04.291Z,6.23
2023-12-19T04:42:33.916Z,6.23
2023-12-19T04:45:01.837Z,6.28
2023-12-19T04:47:30.079Z,6.29
2023-12-19T04:49:58.025Z,6.34
2023-12-19T04:52:25.933Z,6.34
2023-12-19T04:54:53.853Z,6.36
2023-12-19T04:57:21.892Z,6.38
2023-12-19T04:59:51.221Z,6.38
2023-12-19T05:02:19.065Z,6.39
2023-12-19T05:04:46.931Z,6.40
2023-12-19T05:07:14.751Z,6.42
2023-12-19T05:09:42.896Z,6.42
2023-12-19T05:12:10.757Z,6.42
2023-12-19T05:14:39.326Z,6.41
2023-12-19T05:17:08.575Z,6.41
2023-12-19T05:19:43.884Z,6.43
2023-12-19T05:22:17.876Z,6.42
2023-12-19T05:24:45.778Z,6.42
2023-12-19T05:27:13.660Z,6.41
2023-12-19T05:29:42.269Z,6.42
2023-12-19T05:32:11.489Z,6.42
2023-12-19T05:34:39.480Z,6.42
2023-12-19T05:37:07.434Z,6.43
2023-12-19T05:39:35.317Z,6.44
2023-12-19T05:42:03.213Z,6.45
2023-12-19T05:44:31.068Z,6.46
2023-12-19T05:46:58.887Z,6.47
2023-12-19T05:49:28.222Z,6.49
2023-12-19T05:51:56.146Z,6.51
2023-12-19T05:54:24.202Z,6.53
2023-12-19T05:56:52.087Z,6.54
2023-12-19T05:59:19.939Z,6.57
2023-12-19T06:01:47.844Z,6.59
2023-12-19T06:04:16.222Z,6.60
2023-12-19T06:06:45.765Z,6.62
2023-12-19T06:09:14.194Z,6.66
2023-12-19T06:11:42.179Z,6.68
2023-12-19T06:14:10.547Z,6.70
2023-12-19T06:16:38.518Z,6.72
2023-12-19T06:19:06.767Z,6.73
2023-12-19T06:21:34.821Z,6.75
2023-12-19T06:24:05.022Z,6.77
2023-12-19T06:26:33.118Z,6.80
2023-12-19T06:29:01.480Z,6.80
2023-12-19T06:31:29.476Z,6.81
2023-12-19T06:33:57.750Z,6.81
2023-12-19T06:36:30.310Z,6.81
2023-12-19T06:38:58.190Z,6.81
2023-12-19T06:41:27.374Z,6.82
2023-12-19T06:43:55.253Z,6.83
2023-12-19T06:46:23.155Z,6.82
2023-12-19T06:48:51.052Z,6.83
2023-12-19T06:51:24.873Z,6.84
2023-12-19T06:53:53.773Z,6.84
2023-12-19T06:56:21.869Z,6.84
2023-12-19T06:58:51.065Z,6.85
2023-12-19T07:01:18.975Z,6.85
2023-12-19T07:03:46.890Z,6.86
2023-12-19T07:06:16.404Z,6.85
2023-12-19T07:08:46.917Z,6.86
2023-12-19T07:11:16.491Z,6.87
2023-12-19T07:13:44.409Z,6.87
2023-12-19T07:16:18.695Z,6.89
2023-12-19T07:18:47.085Z,6.90
2023-12-19T07:21:23.222Z,6.91
2023-12-19T07:23:51.779Z,6.93
2023-12-19T07:26:24.138Z,6.94
2023-12-19T07:28:53.138Z,6.96
2023-12-19T07:31:24.054Z,6.97
2023-12-19T07:33:54.118Z,6.99
2023-12-19T07:36:22.449Z,7.03
2023-12-19T07:38:50.744Z,7.06
2023-12-19T07:41:18.565Z,7.06
2023-12-19T07:43:46.633Z,7.06
2023-12-19T07:46:15.664Z,7.06
2023-12-19T07:48:45.247Z,7.07
2023-12-19T07:51:17.605Z,7.07
2023-12-19T07:53:45.575Z,7.06
2023-12-19T07:56:13.676Z,7.06
2023-12-19T07:58:41.719Z,7.05
2023-12-19T08:01:12.842Z,7.05
2023-12-19T08:03:42.950Z,7.04
2023-12-19T08:06:12.304Z,7.04
2023-12-19T08:08:40.299Z,7.04
2023-12-19T08:11:08.371Z,7.03
2023-12-19T08:13:36.587Z,7.03
2023-12-19T08:16:06.285Z,7.04
2023-12-19T08:18:34.936Z,7.04
2023-12-19T08:21:04.838Z,7.03
2023-12-19T08:23:34.135Z,7.06
2023-12-19T08:26:01.982Z,7.05
2023-12-19T08:28:29.884Z,7.06
2023-12-19T08:30:57.796Z,7.06
2023-12-19T08:33:25.974Z,7.08
2023-12-19T08:35:53.871Z,7.08
2023-12-19T08:38:21.682Z,7.09
2023-12-19T08:40:50.985Z,7.09
2023-12-19T08:43:21.020Z,7.10
2023-12-19T08:45:49.690Z,7.09
2023-12-19T08:48:18.876Z,7.10
2023-12-19T08:50:47.110Z,7.11
2023-12-19T08:53:15.077Z,7.13
2023-12-19T08:55:47.429Z,7.12
2023-12-19T08:58:16.900Z,7.12
2023-12-19T09:00:45.020Z,7.13
2023-12-19T09:03:12.972Z,7.15
2023-12-19T09:05:40.848Z,7.14
2023-12-19T09:08:09.235Z,7.15
2023-12-19T09:10:37.126Z,7.16
2023-12-19T09:13:06.249Z,7.15
2023-12-19T09:15:36.408Z,7.15
2023-12-19T09:18:05.091Z,7.16
2023-12-19T09:20:32.956Z,7.15
2023-12-19T09:23:01.875Z,7.15
2023-12-19T09:25:30.439Z,7.17
2023-12-19T09:27:58.461Z,7.17
2023-12-19T09:30:26.692Z,7.18
2023-12-19T09:32:55.995Z,7.19
2023-12-19T09:35:24.026Z,7.19
2023-12-19T09:37:51.918Z,7.22
2023-12-19T09:40:20.869Z,7.21
2023-12-19T09:42:49.446Z,7.22
2023-12-19T09:45:17.909Z,7.23
2023-12-19T09:47:55.144Z,7.22
2023-12-19T09:50:27.472Z,7.23
2023-12-19T09:52:58.673Z,7.25
2023-12-19T09:55:28.881Z,7.26
2023-12-19T09:57:58.961Z,7.24
2023-12-19T10:00:30.300Z,7.25
2023-12-19T10:02:58.318Z,7.27
2023-12-19T10:05:27.819Z,7.28
2023-12-19T10:07:58.150Z,7.28
2023-12-19T10:10:53.271Z,7.27
2023-12-19T10:13:27.607Z,7.28
2023-12-19T10:16:29.258Z,7.27
2023-12-19T10:18:55.426Z,7.28
2023-12-19T10:21:26.129Z,7.30
2023-12-19T10:23:54.066Z,7.30
2023-12-19T10:26:29.666Z,7.28
2023-12-19T10:28:58.761Z,7.29
2023-12-19T10:31:26.720Z,7.29
2023-12-19T10:33:57.329Z,7.28
2023-12-19T10:36:28.548Z,7.28
2023-12-19T10:38:58.265Z,7.28
2023-12-19T10:41:27.725Z,7.28
2023-12-19T10:43:57.527Z,7.27
2023-12-19T10:46:26.962Z,7.26
2023-12-19T10:48:55.900Z,7.26
2023-12-19T10:51:33.900Z,7.25
2023-12-19T10:54:09.505Z,7.23
2023-12-19T10:56:48.103Z,7.23
2023-12-19T10:59:26.261Z,7.21
2023-12-19T11:01:58.774Z,7.21
2023-12-19T11:04:30.898Z,7.23
2023-12-19T11:07:05.250Z,7.25
2023-12-19T11:09:36.055Z,7.26
2023-12-19T11:12:04.702Z,7.26
2023-12-19T11:14:32.591Z,7.28
2023-12-19T11:17:09.711Z,7.28
2023-12-19T11:19:47.189Z,7.29
2023-12-19T11:22:23.588Z,7.29
2023-12-19T11:25:02.787Z,7.31
2023-12-19T11:27:37.862Z,7.31
2023-12-19T11:30:06.999Z,7.32
2023-12-19T11:32:44.577Z,7.32
2023-12-19T11:35:14.956Z,7.33
2023-12-19T11:37:46.324Z,7.35
2023-12-19T11:40:51.334Z,7.36
2023-12-19T11:43:54.550Z,7.36
2023-12-19T11:46:24.441Z,7.36
2023-12-19T11:48:53.295Z,7.37
2023-12-19T11:51:47.837Z,7.38
2023-12-19T11:54:17.172Z,7.40
2023-12-19T11:56:46.489Z,7.39
2023-12-19T11:59:16.761Z,7.42
2023-12-19T12:01:45.740Z,7.40
2023-12-19T12:04:14.321Z,7.42
2023-12-19T12:06:43.319Z,7.43
2023-12-19T12:09:11.624Z,7.43
2023-12-19T12:11:52.967Z,7.44
2023-12-19T12:14:21.839Z,7.43
2023-12-19T12:16:49.858Z,7.44
2023-12-19T12:19:22.370Z,7.45
2023-12-19T12:21:52.416Z,7.46
2023-12-19T12:24:31.422Z,7.45
2023-12-19T12:27:12.289Z,7.46
2023-12-19T12:29:40.674Z,7.47
2023-12-19T12:32:09.781Z,7.47
2023-12-19T12:34:37.811Z,7.48
2023-12-19T12:37:06.199Z,7.49
2023-12-19T12:39:35.537Z,7.48
2023-12-19T12:42:05.018Z,7.50
2023-12-19T12:44:34.490Z,7.51
2023-12-19T12:47:02.379Z,7.50
2023-12-19T12:49:32.180Z,7.49
2023-12-19T12:52:01.479Z,7.50
2023-12-19T12:54:30.094Z,7.48
2023-12-19T12:56:58.175Z,7.49
2023-12-19T12:59:26.574Z,7.49
2023-12-19T13:01:56.462Z,7.49
2023-12-19T13:04:25.037Z,7.48
2023-12-19T13:06:52.975Z,7.49
2023-12-19T13:09:22.076Z,7.49
2023-12-19T13:11:52.002Z,7.49
2023-12-19T13:14:20.095Z,7.51
2023-12-19T13:16:47.995Z,7.51
2023-12-19T13:19:19.046Z,7.51
2023-12-19T13:21:47.479Z,7.53
2023-12-19T13:24:15.924Z,7.52
2023-12-19T13:26:43.773Z,7.53
2023-12-19T13:29:11.719Z,7.55
2023-12-19T13:31:40.006Z,7.55
2023-12-19T13:34:08.047Z,7.55
2023-12-19T13:36:41.753Z,7.56
2023-12-19T13:39:13.273Z,7.56
2023-12-19T13:41:42.564Z,7.56
2023-12-19T13:44:10.591Z,7.56
2023-12-19T13:46:38.433Z,7.56
2023-12-19T13:49:06.513Z,7.57
2023-12-19T13:51:35.102Z,7.57
2023-12-19T13:54:04.439Z,7.59
2023-12-19T13:56:32.399Z,7.58
2023-12-19T13:59:00.910Z,7.59
2023-12-19T14:01:28.872Z,7.59
2023-12-19T14:03:57.056Z,7.59
2023-12-19T14:06:25.075Z,7.60
2023-12-19T14:08:52.937Z,7.59
2023-12-19T14:11:22.135Z,7.60
2023-12-19T14:13:49.991Z,7.60
2023-12-19T14:16:17.943Z,7.58
2023-12-19T14:18:49.206Z,7.60
2023-12-19T14:21:18.061Z,7.58
2023-12-19T14:23:46.061Z,7.61
2023-12-19T14:26:14.053Z,7.62
2023-12-19T14:28:43.275Z,7.62
2023-12-19T14:31:15.572Z,7.63
2023-12-19T14:33:43.892Z,7.64
2023-12-19T14:36:12.072Z,7.63
2023-12-19T14:38:41.673Z,7.64
2023-12-19T14:41:09.910Z,7.64
2023-12-19T14:43:38.616Z,7.64
2023-12-19T14:46:07.913Z,7.67
2023-12-19T14:48:35.981Z,7.67
2023-12-19T14:51:05.809Z,7.68
2023-12-19T14:53:33.868Z,7.69
2023-12-19T14:56:01.877Z,7.72
2023-12-19T14:58:29.940Z,7.71
2023-12-19T15:00:57.895Z,7.71
2023-12-19T15:03:28.415Z,7.72
2023-12-19T15:05:56.313Z,7.74
2023-12-19T15:08:24.131Z,7.75
2023-12-19T15:10:53.326Z,7.77
2023-12-19T15:13:21.511Z,7.79
2023-12-19T15:15:49.449Z,7.79
2023-12-19T15:18:23.404Z,7.79
2023-12-19T15:20:59.935Z,7.78
2023-12-19T15:23:27.824Z,7.79
2023-12-19T15:25:55.723Z,7.81
2023-12-19T15:28:23.638Z,7.83
2023-12-19T15:30:51.719Z,7.83
2023-12-19T15:33:19.859Z,7.84
2023-12-19T15:35:48.533Z,7.84
2023-12-19T15:38:17.749Z,7.85
2023-12-19T15:40:46.532Z,7.85
2023-12-19T15:43:25.695Z,7.85
2023-12-19T15:46:07.147Z,7.86
2023-12-19T15:48:35.385Z,7.86
2023-12-19T15:51:03.387Z,7.86
2023-12-19T15:53:32.592Z,7.87
2023-12-19T15:56:00.446Z,7.86
2023-12-19T15:58:28.477Z,7.86
2023-12-19T16:00:56.801Z,7.88
2023-12-19T16:03:24.837Z,7.86
2023-12-19T16:05:52.820Z,7.86
2023-12-19T16:08:20.980Z,7.87
2023-12-19T16:10:50.178Z,7.88
2023-12-19T16:13:18.061Z,7.88
2023-12-19T16:15:45.987Z,7.89
2023-12-19T16:18:14.046Z,7.89
2023-12-19T16:20:41.896Z,7.91
2023-12-19T16:23:09.737Z,7.90
2023-12-19T16:25:37.585Z,7.90
2023-12-19T16:28:11.594Z,7.92
2023-12-19T16:30:40.071Z,7.92
2023-12-19T16:33:07.974Z,7.93
2023-12-19T16:35:35.853Z,7.92
2023-12-19T16:38:05.546Z,7.91
2023-12-19T16:40:33.466Z,7.91
2023-12-19T16:43:01.338Z,7.91
2023-12-19T16:45:30.657Z,7.91
2023-12-19T16:47:58.650Z,7.92
2023-12-19T16:50:26.718Z,7.91
2023-12-19T16:52:54.692Z,7.91
2023-12-19T16:55:22.602Z,7.91
2023-12-19T16:57:50.471Z,7.89
2023-12-19T17:00:19.202Z,7.88
2023-12-19T17:02:48.878Z,7.91
2023-12-19T17:05:17.377Z,7.92
2023-12-19T17:07:45.300Z,7.92
2023-12-19T17:10:13.197Z,7.93
2023-12-19T17:12:41.165Z,7.93
2023-12-19T17:15:10.449Z,7.94
2023-12-19T17:17:38.291Z,7.94
2023-12-19T17:20:08.904Z,7.94
2023-12-19T17:22:36.754Z,7.94
2023-12-19T17:25:05.645Z,7.95
2023-12-19T17:27:35.901Z,7.94
2023-12-19T17:30:06.442Z,7.96
2023-12-19T17:32:36.442Z,7.96
2023-12-19T17:35:07.513Z,7.96
2023-12-19T17:37:36.981Z,7.98
2023-12-19T17:40:10.175Z,7.98
2023-12-19T17:42:38.932Z,7.99
2023-12-19T17:45:08.596Z,7.99
2023-12-19T17:47:36.578Z,7.98
2023-12-19T17:50:04.840Z,7.98
2023-12-19T17:52:32.687Z,7.99
2023-12-19T17:55:01.997Z,7.98
2023-12-19T17:57:29.866Z,7.98
2023-12-19T17:59:57.711Z,7.98
2023-12-19T18:02:25.547Z,7.98
2023-12-19T18:04:53.412Z,7.98
2023-12-19T18:07:21.360Z,7.99
2023-12-19T18:09:49.246Z,7.99
2023-12-19T18:12:18.496Z,8.00
2023-12-19T18:14:46.342Z,7.99
2023-12-19T18:17:14.168Z,8.01
2023-12-19T18:19:42.156Z,8.01
2023-12-19T18:22:10.226Z,8.02
2023-12-19T18:24:38.208Z,8.02
2023-12-19T18:27:07.507Z,8.03
2023-12-19T18:29:36.739Z,8.02
2023-12-19T18:32:05.073Z,8.01
2023-12-19T18:34:33.168Z,8.02
2023-12-19T18:37:01.217Z,8.02
2023-12-19T18:39:29.091Z,8.01
2023-12-19T18:41:56.939Z,8.02
2023-12-19T18:44:24.846Z,8.03
2023-12-19T18:46:54.036Z,8.02
2023-12-19T18:49:22.687Z,8.03
2023-12-19T18:51:50.606Z,8.01
2023-12-19T18:54:18.467Z,8.01
2023-12-19T18:56:46.315Z,8.00
2023-12-19T18:59:14.192Z,7.98
2023-12-19T19:01:43.871Z,7.99
2023-12-19T19:04:13.173Z,7.98
2023-12-19T19:06:43.671Z,7.98
2023-12-19T19:09:12.543Z,7.96
2023-12-19T19:11:40.851Z,7.95
2023-12-19T19:14:08.669Z,7.94
2023-12-19T19:16:36.818Z,7.95
2023-12-19T19:19:04.740Z,7.96
2023-12-19T19:21:34.725Z,7.94
2023-12-19T19:24:02.618Z,7.93
2023-12-19T19:26:30.484Z,7.93
2023-12-19T19:29:00.505Z,7.94
2023-12-19T19:31:28.457Z,7.93
2023-12-19T19:33:56.591Z,7.91
2023-12-19T19:36:25.738Z,7.88
2023-12-19T19:38:54.922Z,7.87
2023-12-19T19:41:24.358Z,7.86
2023-12-19T19:43:55.089Z,7.84
2023-12-19T19:46:23.073Z,7.84
2023-12-19T19:48:52.593Z,7.84
2023-12-19T19:51:21.881Z,7.83
2023-12-19T19:53:49.837Z,7.81
2023-12-19T19:56:19.021Z,7.81
2023-12-19T19:58:46.884Z,7.82
2023-12-19T20:01:16.567Z,7.79
2023-12-19T20:03:45.338Z,7.78
2023-12-19T20:06:13.679Z,7.78
2023-12-19T20:08:41.669Z,7.74
2023-12-19T20:11:09.603Z,7.72
2023-12-19T20:13:38.751Z,7.72
2023-12-19T20:16:07.349Z,7.71
2023-12-19T20:18:35.262Z,7.69
2023-12-19T20:21:03.232Z,7.67
2023-12-19T20:23:31.101Z,7.65
2023-12-19T20:25:59.455Z,7.62
2023-12-19T20:28:27.346Z,7.57
2023-12-19T20:30:57.243Z,7.55
2023-12-19T20:33:25.269Z,7.52
2023-12-19T20:35:53.387Z,7.50
2023-12-19T20:38:21.872Z,7.49
2023-12-19T20:40:49.989Z,7.46
2023-12-19T20:43:17.896Z,7.42
2023-12-19T20:45:47.104Z,7.40
2023-12-19T20:48:16.880Z,7.38
2023-12-19T20:50:45.144Z,7.37
2023-12-19T20:53:13.510Z,7.34
2023-12-19T20:55:42.615Z,7.30
2023-12-19T20:58:10.661Z,7.28
2023-12-19T21:00:39.915Z,7.26
2023-12-19T21:03:07.826Z,7.24
2023-12-19T21:05:37.115Z,7.21
2023-12-19T21:08:05.370Z,7.17
2023-12-19T21:10:33.182Z,7.15
2023-12-19T21:13:01.699Z,7.11
2023-12-19T21:15:31.756Z,7.07
2023-12-19T21:18:00.342Z,7.03
2023-12-19T21:20:28.278Z,7.02
2023-12-19T21:22:57.536Z,6.98
2023-12-19T21:25:25.570Z,6.94
2023-12-19T21:27:53.784Z,6.92
2023-12-19T21:30:21.788Z,6.87
2023-12-19T21:32:50.143Z,6.82
2023-12-19T21:35:18.687Z,6.80
2023-12-19T21:37:46.663Z,6.75
2023-12-19T21:40:16.266Z,6.71
2023-12-19T21:42:44.551Z,6.70
2023-12-19T21:45:12.549Z,6.66
2023-12-19T21:47:40.494Z,6.63
2023-12-19T21:50:09.175Z,6.60
2023-12-19T21:52:37.144Z,6.56
2023-12-19T21:55:06.440Z,6.54
2023-12-19T21:57:36.022Z,6.49
2023-12-19T22:00:04.045Z,6.47
2023-12-19T22:02:32.778Z,6.46
2023-12-19T22:05:00.913Z,6.43
2023-12-19T22:07:29.602Z,6.40
2023-12-19T22:10:02.324Z,6.37
2023-12-19T22:12:31.636Z,6.33
2023-12-19T22:15:01.045Z,6.31
2023-12-19T22:17:28.927Z,6.28
2023-12-19T22:19:57.207Z,6.25
2023-12-19T22:22:25.413Z,6.21
2023-12-19T22:24:53.372Z,6.19
2023-12-19T22:27:21.228Z,6.13
2023-12-19T22:29:49.384Z,6.10
2023-12-19T22:32:18.708Z,6.02
2023-12-19T22:34:46.574Z,5.99
2023-12-19T22:37:14.697Z,5.93
2023-12-19T22:39:42.682Z,5.90
2023-12-19T22:42:10.505Z,5.86
2023-12-19T22:44:38.407Z,5.83
2023-12-19T22:47:06.290Z,5.79
2023-12-19T22:49:35.561Z,5.76
2023-12-19T22:52:03.482Z,5.73
2023-12-19T22:54:33.511Z,5.70
2023-12-19T22:57:03.492Z,5.68
2023-12-19T22:59:31.372Z,5.64
2023-12-19T23:01:59.319Z,5.59
2023-12-19T23:04:27.693Z,5.57
2023-12-19T23:06:57.089Z,5.54
2023-12-19T23:09:25.178Z,5.51
2023-12-19T23:11:53.000Z,5.52
2023-12-19T23:14:23.325Z,5.50
2023-12-19T23:16:51.345Z,5.52
2023-12-19T23:19:19.369Z,5.52
2023-12-19T23:21:47.290Z,5.51
2023-12-19T23:24:16.515Z,5.51
2023-12-19T23:26:44.357Z,5.52
2023-12-19T23:29:12.517Z,5.52
2023-12-19T23:31:42.614Z,5.53
2023-12-19T23:34:12.017Z,5.54
2023-12-19T23:36:40.179Z,5.56
2023-12-19T23:39:09.071Z,5.58
2023-12-19T23:41:38.495Z,5.58
2023-12-19T23:44:06.552Z,5.59
2023-12-19T23:46:34.532Z,5.58
2023-12-19T23:49:02.632Z,5.58
2023-12-19T23:51:30.528Z,5.57
2023-12-19T23:53:58.374Z,5.55
2023-12-19T23:56:26.242Z,5.55
2023-12-19T23:58:55.458Z,5.52
